Brookville, Illinois
Current Conditions -  °F | °C
As of 8:35 PM on Friday 21 Nov 2014 (Local Time) from KFEP Reporting Station
Overcast Overcast  
Wind Chill: 21°   Ceiling: 2100
Heat Index: 31°   Visibility: 10mi
Dew Point: 11°   Wind: 16mph
Humidity: 43%   Direction: 170°S
Pressure: 30.19"   Gusts: NA
Location:  41.9978°N, 89.6213°W
Report Text: KFEP 220235Z AUTO 17014KT 10SM OVC021 00/M11 A3019 RMK AO2 T10031115
Loading
Personal Weather Stations






























Interactive Weather Map New forecast layout! Learn more

10-Day Weather Forecast

Advertisements
Track Severe Weather on mobile